Family Island — 5IM-795 — position and weather

sailwx.info

Track history (hours):
 
Tides and Currents Weather Stations Pressure Air Temp Water Temp Dewpoint Dewpoint Depression Visibility Wind Speed Wind Dir Waves Ship Positions

Family Island

Last reported at 2018-Mar-10 23:26 UTC. Time now 2018-Jun-24 22:13 UTC.
Position N 25°32' W 079°50'.
Warning: this ship's position is months out of date.

; draft 4.1 m.

Type: Cargo ship. MMSI: 677099500.

Date/timePositionNaut miles runAvg speedWind from/ knotsBaromVisibWave heightAir tempDewpointWater temp
2018-Mar-10 23:26N 25°32' W 079°50'2 4.5
2018-Mar-10 23:00N 25°34' W 079°51'2 4.6
2018-Mar-10 22:30N 25°36' W 079°52'2 4.7
2018-Mar-10 22:00N 25°38' W 079°53'2 4.6
2018-Mar-10 21:30N 25°40' W 079°54'2 4.5
2018-Mar-10 21:00N 25°42' W 079°55'2 4.6
2018-Mar-10 20:30N 25°44' W 079°56'3 5.2
2018-Mar-10 20:00N 25°45' W 079°59'3 5.9
2018-Mar-10 19:30N 25°46' W 080°02'3 5.8
2018-Mar-10 19:00N 25°46' W 080°06'3 5.3
2018-Mar-10 18:30N 25°46' W 080°08'2 4.8
2018-Mar-10 17:59N 25°46' W 080°11'1 2.4
2018-Mar-10 17:28N 25°47' W 080°12'0 0.0
2018-Mar-10 16:53N 25°47' W 080°12'1 1.6
2018-Mar-10 16:31N 25°47' W 080°13'1 1.2
2018-Mar-10 15:57N 25°47' W 080°14'0 0.0
2018-Mar-10 15:27N 25°47' W 080°14'0 0.0
2018-Mar-10 14:58N 25°47' W 080°14'0 0.0
2018-Mar-10 14:28N 25°47' W 080°14'0 0.0
2018-Mar-10 14:00N 25°47' W 080°14'0 0.0
2018-Mar-10 13:27N 25°47' W 080°14'0 0.0
2018-Mar-10 12:58N 25°47' W 080°14'0 0.0
2018-Mar-10 12:27N 25°47' W 080°14'0 0.0
2018-Mar-10 11:59N 25°47' W 080°14'0 0.0
2018-Mar-10 11:30N 25°47' W 080°14'0 0.0
2018-Mar-10 11:00N 25°47' W 080°14'0 0.0
2018-Mar-10 10:30N 25°47' W 080°14'0 0.0
2018-Mar-10 10:00N 25°47' W 080°14'0 0.0
2018-Mar-10 09:28N 25°47' W 080°14'0 0.0
2018-Mar-10 08:58N 25°47' W 080°14'0 0.0
2018-Mar-10 08:22N 25°47' W 080°14'0 0.0
2018-Mar-10 07:58N 25°47' W 080°14'0 0.0
2018-Mar-10 07:28N 25°47' W 080°14'0 0.0
2018-Mar-10 06:54N 25°47' W 080°14'0 0.0
2018-Mar-10 06:30N 25°47' W 080°14'0 0.0
2018-Mar-10 05:55N 25°47' W 080°14'0 0.0
2018-Mar-10 05:25N 25°47' W 080°14'0 0.0
2018-Mar-10 04:58N 25°47' W 080°14'0 0.0
2018-Mar-10 04:27N 25°47' W 080°14'0 0.0
2018-Mar-10 03:57N 25°47' W 080°14'0 0.0
2018-Mar-10 03:30N 25°47' W 080°14'0 0.0
2018-Mar-10 03:00N 25°47' W 080°14'0 0.0
2018-Mar-10 02:30N 25°47' W 080°14'0 0.0
2018-Mar-10 01:58N 25°47' W 080°14'0 0.0
2018-Mar-10 01:22N 25°47' W 080°14'0 0.0
2018-Mar-10 00:58N 25°47' W 080°14'0 0.0
2018-Mar-10 00:22N 25°47' W 080°14'0 0.0
2018-Mar-09 23:58N 25°47' W 080°14'0 0.0
2018-Mar-09 23:29N 25°47' W 080°14'0 0.0
2018-Mar-09 22:58N 25°47' W 080°14'0 0.0
2018-Mar-09 22:26N 25°47' W 080°14'0 0.0
2018-Mar-09 21:58N 25°47' W 080°14'0 0.0
2018-Mar-09 21:28N 25°47' W 080°14'0 0.0
2018-Mar-09 21:00N 25°47' W 080°14'0 0.0
2018-Mar-09 20:30N 25°47' W 080°14'0 0.0
2018-Mar-09 19:55N 25°47' W 080°14'0 0.0
2018-Mar-09 19:25N 25°47' W 080°14'0 0.0
2018-Mar-09 18:54N 25°47' W 080°14'0 0.0
2018-Mar-09 18:23N 25°47' W 080°14'0 0.0
2018-Mar-09 17:54N 25°47' W 080°14'0 0.0
2018-Mar-09 17:27N 25°47' W 080°14'0 0.0
2018-Mar-09 17:00N 25°47' W 080°14'0 0.0
2018-Mar-09 16:27N 25°47' W 080°14'0 0.0
2018-Mar-09 15:57N 25°47' W 080°14'0 0.0
2018-Mar-09 15:28N 25°47' W 080°14'0 0.0
2018-Mar-09 14:58N 25°47' W 080°14'0 0.0
2018-Mar-09 14:28N 25°47' W 080°14'0 0.0
2018-Mar-09 13:58N 25°47' W 080°14'0 0.0
2018-Mar-09 13:21N 25°47' W 080°14'0 0.0
2018-Mar-09 12:56N 25°47' W 080°14'0 0.0
2018-Mar-09 12:26N 25°47' W 080°14'0 0.0
2018-Mar-09 12:00N 25°47' W 080°14'0 0.0
2018-Mar-09 11:30N 25°47' W 080°14'0 0.0
2018-Mar-09 10:59N 25°47' W 080°14'0 0.0
2018-Mar-09 10:28N 25°47' W 080°14'0 0.0
2018-Mar-09 09:52N 25°47' W 080°14'0 0.0
2018-Mar-09 09:24N 25°47' W 080°14'0 0.0
2018-Mar-09 09:00N 25°47' W 080°14'0 0.0
2018-Mar-09 08:30N 25°47' W 080°14'0 0.0
2018-Mar-09 08:00N 25°47' W 080°14'0 0.0
2018-Mar-09 07:26N 25°47' W 080°14'0 0.0
2018-Mar-09 06:58N 25°47' W 080°14'0 0.0
2018-Mar-09 06:28N 25°47' W 080°14'0 0.0
2018-Mar-09 05:57N 25°47' W 080°14'0 0.0
2018-Mar-09 05:26N 25°47' W 080°14'0 0.0
2018-Mar-09 04:59N 25°47' W 080°14'0 0.0
2018-Mar-09 04:27N 25°47' W 080°14'0 0.0
2018-Mar-09 03:58N 25°47' W 080°14'0 0.0
2018-Mar-09 03:29N 25°47' W 080°14'0 0.0
2018-Mar-09 02:59N 25°47' W 080°14'0 0.0
2018-Mar-09 02:29N 25°47' W 080°14'0 0.0
2018-Mar-09 01:59N 25°47' W 080°14'0 0.0
2018-Mar-09 01:24N 25°47' W 080°14'0 0.0
2018-Mar-09 00:55N 25°47' W 080°14'0 0.0
2018-Mar-09 00:28N 25°47' W 080°14'0 0.0
2018-Mar-08 23:57N 25°47' W 080°14'0 0.0
2018-Mar-08 23:25N 25°47' W 080°14'0 0.0
2018-Mar-08 22:58N 25°47' W 080°14'0 0.0
2018-Mar-08 22:29N 25°47' W 080°14'0 0.0
2018-Mar-08 21:59N 25°47' W 080°14'0 0.0
2018-Mar-08 21:29N 25°47' W 080°14'0 0.0
2018-Mar-08 20:54N 25°47' W 080°14'0 0.0
2018-Mar-08 20:30N 25°47' W 080°14'0 0.0
2018-Mar-07 21:59N 25°47' W 080°14'0 0.0
2018-Mar-07 21:26N 25°47' W 080°14'0 0.0
2018-Mar-07 20:57N 25°47' W 080°14'0 0.0
2018-Mar-07 20:30N 25°47' W 080°14'0 0.0
2018-Mar-07 19:58N 25°47' W 080°14'0 0.0
2018-Mar-07 19:28N 25°47' W 080°14'0 0.0
2018-Mar-07 18:56N 25°47' W 080°14'0 0.0
2018-Mar-07 18:29N 25°47' W 080°14'0 0.0
2018-Mar-07 18:00N 25°47' W 080°14'0 0.0
2018-Mar-07 17:30N 25°47' W 080°14'0 0.0
2018-Mar-07 16:55N 25°47' W 080°14'0 0.0
2018-Mar-07 16:30N 25°47' W 080°14'0 0.0
2018-Mar-07 15:58N 25°47' W 080°14'0 0.0
2018-Mar-07 15:28N 25°47' W 080°14'0 0.0
2018-Mar-07 14:58N 25°47' W 080°14'0 0.0
2018-Mar-07 14:28N 25°47' W 080°14'0 0.0
2018-Mar-07 14:00N 25°47' W 080°14'0 0.0
2018-Mar-07 13:21N 25°47' W 080°14'0 0.0
2018-Mar-07 13:00N 25°47' W 080°14'0 0.0
2018-Mar-07 12:29N 25°47' W 080°14'0 0.0
2018-Mar-07 12:00N 25°47' W 080°14'0 0.0
2018-Mar-07 11:30N 25°47' W 080°14'0 0.0
2018-Mar-07 10:57N 25°47' W 080°14'0 0.0
2018-Mar-07 10:30N 25°47' W 080°14'0 0.0
2018-Mar-07 09:59N 25°47' W 080°14'0 0.0
2018-Mar-07 09:24N 25°47' W 080°14'0 0.0
2018-Mar-07 08:57N 25°47' W 080°14'0 0.0
2018-Mar-07 08:30N 25°47' W 080°14'0 0.0
2018-Mar-07 08:00N 25°47' W 080°14'0 0.0
2018-Mar-07 07:30N 25°47' W 080°14'0 0.0
2018-Mar-07 07:00N 25°47' W 080°14'0 0.0
2018-Mar-07 06:30N 25°47' W 080°14'0 0.0
2018-Mar-07 05:59N 25°47' W 080°14'0 0.0
2018-Mar-07 05:29N 25°47' W 080°14'0 0.0
2018-Mar-07 04:53N 25°47' W 080°14'0 0.0
2018-Mar-07 04:28N 25°47' W 080°14'0 0.0
2018-Mar-07 03:58N 25°47' W 080°14'0 0.0
2018-Mar-07 03:24N 25°47' W 080°14'0 0.0
2018-Mar-07 02:56N 25°47' W 080°14'0 0.0
2018-Mar-07 02:29N 25°47' W 080°14'0 0.0
2018-Mar-07 01:55N 25°47' W 080°14'0 0.0
2018-Mar-07 01:25N 25°47' W 080°14'0 0.0
2018-Mar-07 00:59N 25°47' W 080°14'0 0.0
2018-Mar-07 00:28N 25°47' W 080°14'0 0.0
2018-Mar-06 23:59N 25°47' W 080°14'0 0.0
2018-Mar-06 23:28N 25°47' W 080°14'0 0.0
2018-Mar-06 22:58N 25°47' W 080°14'0 0.0
2018-Mar-06 22:28N 25°47' W 080°14'0 0.0
2018-Mar-06 21:58N 25°47' W 080°14'0 0.0
2018-Mar-06 21:28N 25°47' W 080°14'0 0.0
2018-Mar-06 20:57N 25°47' W 080°14'0 0.0
2018-Mar-06 20:30N 25°47' W 080°14'0 0.0
2018-Mar-06 20:00N 25°47' W 080°14'0 0.0
2018-Mar-06 19:26N 25°47' W 080°14'0 0.0
2018-Mar-06 18:59N 25°47' W 080°14'0 0.0
2018-Mar-06 18:29N 25°47' W 080°14'0 0.0
2018-Mar-06 17:59N 25°47' W 080°14'0 0.0
2018-Mar-06 17:27N 25°47' W 080°14'0 0.0
2018-Mar-06 16:57N 25°47' W 080°14'0 0.0
2018-Mar-06 16:27N 25°47' W 080°14'0 0.0
2018-Mar-06 16:00N 25°47' W 080°14'0 0.0
2018-Mar-06 15:29N 25°47' W 080°14'0 0.0
2018-Mar-06 14:59N 25°47' W 080°14'0 0.0
2018-Mar-06 14:29N 25°47' W 080°14'0 0.0
2018-Mar-06 14:00N 25°47' W 080°14'0 0.0
2018-Mar-06 13:30N 25°47' W 080°14'0 0.0
2018-Mar-06 12:59N 25°47' W 080°14'0 0.0
2018-Mar-06 12:29N 25°47' W 080°14'0 0.0
2018-Mar-06 11:58N 25°47' W 080°14'0 0.0
2018-Mar-06 11:22N 25°47' W 080°14'0 0.0
2018-Mar-06 11:00N 25°47' W 080°14'0 0.0
2018-Mar-06 10:30N 25°47' W 080°14'0 0.0
2018-Mar-06 10:00N 25°47' W 080°14'0 0.0
2018-Mar-06 09:29N 25°47' W 080°14'0 0.0
2018-Mar-06 09:00N 25°47' W 080°14'0 0.0
2018-Mar-06 08:29N 25°47' W 080°14'0 0.0
2018-Mar-06 08:00N 25°47' W 080°14'0 0.0
2018-Mar-06 07:30N 25°47' W 080°14'0 0.0
2018-Mar-06 06:59N 25°47' W 080°14'0 0.0
2018-Mar-06 06:22N 25°47' W 080°14'0 0.0
2018-Mar-06 05:55N 25°47' W 080°14'0 0.0
2018-Mar-06 05:27N 25°47' W 080°14'0 0.0
2018-Mar-06 05:00N 25°47' W 080°14'0 0.0
2018-Mar-06 04:30N 25°47' W 080°14'0 0.0
2018-Mar-06 03:58N 25°47' W 080°14'0 0.0
2018-Mar-06 03:28N 25°47' W 080°14'0 0.0
2018-Mar-06 02:50N 25°47' W 080°14'0 0.0
2018-Mar-06 02:29N 25°47' W 080°14'0 0.0
2018-Mar-06 01:57N 25°47' W 080°14'0 0.0
2018-Mar-06 01:30N 25°47' W 080°14'0 0.0
2018-Mar-06 00:52N 25°47' W 080°14'0 0.0
2018-Mar-06 00:28N 25°47' W 080°14'0 0.0
2018-Mar-05 23:58N 25°47' W 080°14'0 0.0
2018-Mar-05 23:30N 25°47' W 080°14'0 0.0
2018-Mar-05 22:57N 25°47' W 080°14'0 0.0
2018-Mar-05 22:28N 25°47' W 080°14'0 0.0
2018-Mar-05 21:58N 25°47' W 080°14'0 0.0
2018-Mar-05 21:30N 25°47' W 080°14'0 0.0
2018-Mar-05 20:58N 25°47' W 080°14'0 0.0
2018-Mar-05 20:30N 25°47' W 080°14'0 0.0
2018-Mar-05 19:57N 25°47' W 080°14'0 0.0
2018-Mar-05 19:30N 25°47' W 080°14'0 0.0
2018-Mar-05 19:00N 25°47' W 080°14'0 0.0
2018-Mar-05 18:28N 25°47' W 080°14'0 0.0
2018-Mar-05 18:00N 25°47' W 080°14'0 0.0
2018-Mar-05 17:25N 25°47' W 080°14'0 0.0
2018-Mar-05 16:56N 25°47' W 080°14'0 0.0
2018-Mar-05 16:27N 25°47' W 080°14'0 0.0
2018-Mar-05 16:00N 25°47' W 080°14'0 0.0
2018-Mar-05 15:29N 25°47' W 080°14'0 0.0
2018-Mar-05 14:59N 25°47' W 080°14'0 0.0
2018-Mar-05 14:29N 25°47' W 080°14'0 0.0
2018-Mar-05 13:53N 25°47' W 080°14'0 0.0
2018-Mar-05 13:30N 25°47' W 080°14'0 0.0
2018-Mar-05 12:57N 25°47' W 080°14'0 0.0
2018-Mar-05 12:30N 25°47' W 080°14'0 0.0
2018-Mar-05 11:58N 25°47' W 080°14'0 0.0
2018-Mar-05 11:28N 25°47' W 080°14'0 0.0
2018-Mar-05 10:58N 25°47' W 080°14'0 0.0
2018-Mar-05 10:29N 25°47' W 080°14'0 0.0
2018-Mar-05 09:58N 25°47' W 080°14'0 0.0
2018-Mar-05 09:28N 25°47' W 080°14'0 0.0
2018-Mar-05 08:53N 25°47' W 080°14'0 0.0
2018-Mar-05 08:30N 25°47' W 080°14'0 0.0
2018-Mar-05 07:57N 25°47' W 080°14'0 0.0
2018-Mar-05 07:24N 25°47' W 080°14'0 0.0
2018-Mar-05 07:00N 25°47' W 080°14'0 0.0
2018-Mar-05 06:30N 25°47' W 080°14'0 0.0
2018-Mar-05 05:56N 25°47' W 080°14'0 0.0
2018-Mar-05 05:30N 25°47' W 080°14'0 0.0
2018-Mar-05 05:00N 25°47' W 080°14'0 0.0
2018-Mar-05 04:27N 25°47' W 080°14'0 0.0
2018-Mar-05 03:58N 25°47' W 080°14'0 0.0
2018-Mar-05 03:26N 25°47' W 080°14'0 0.0
2018-Mar-05 02:53N 25°47' W 080°14'0 0.0
2018-Mar-05 02:23N 25°47' W 080°14'0 0.0
2018-Mar-05 01:56N 25°47' W 080°14'0 0.0
2018-Mar-05 01:28N 25°47' W 080°14'0 0.0
2018-Mar-05 00:58N 25°47' W 080°14'0 0.0
2018-Mar-05 00:28N 25°47' W 080°14'0 0.0
2018-Mar-04 23:55N 25°47' W 080°14'0 0.0
2018-Mar-04 23:28N 25°47' W 080°14'0 0.0
2018-Mar-04 22:58N 25°47' W 080°14'0 0.0
2018-Mar-04 22:28N 25°47' W 080°14'0 0.0
2018-Mar-04 21:58N 25°47' W 080°14'0 0.0
2018-Mar-04 21:29N 25°47' W 080°14'0 0.0
2018-Mar-04 21:00N 25°47' W 080°14'0 0.0
2018-Mar-04 20:30N 25°47' W 080°14'0 0.0
2018-Mar-04 20:00N 25°47' W 080°14'0 0.0
2018-Mar-04 19:30N 25°47' W 080°14'0 0.0
2018-Mar-04 18:59N 25°47' W 080°14'0 0.0
2018-Mar-04 18:28N 25°47' W 080°14'0 0.0
2018-Mar-04 17:59N 25°47' W 080°14'0 0.0
2018-Mar-04 17:30N 25°47' W 080°14'0 0.0
2018-Mar-04 16:55N 25°47' W 080°14'0 0.0
2018-Mar-04 16:25N 25°47' W 080°14'0 0.0
2018-Mar-04 15:58N 25°47' W 080°14'0 0.0
2018-Mar-04 15:25N 25°47' W 080°14'0 0.0
2018-Mar-04 15:00N 25°47' W 080°14'0 0.0
2018-Mar-04 14:27N 25°47' W 080°14'0 0.0
2018-Mar-04 13:57N 25°47' W 080°14'0 0.0
2018-Mar-04 13:28N 25°47' W 080°14'0 0.0
2018-Mar-04 12:55N 25°47' W 080°14'0 0.0
2018-Mar-04 12:29N 25°47' W 080°14'0 0.0
2018-Mar-04 11:58N 25°47' W 080°14'0 0.0
2018-Mar-04 11:25N 25°47' W 080°14'0 0.0
2018-Mar-04 10:58N 25°47' W 080°14'0 0.0
2018-Mar-04 10:27N 25°47' W 080°14'0 0.0
2018-Mar-04 09:56N 25°47' W 080°14'0 0.0
2018-Mar-04 09:28N 25°47' W 080°14'0 0.0
2018-Mar-04 08:58N 25°47' W 080°14'0 0.0
2018-Mar-04 08:28N 25°47' W 080°14'0 0.0
2018-Mar-04 07:58N 25°47' W 080°14'0 0.0
2018-Mar-04 07:25N 25°47' W 080°14'0 0.0
2018-Mar-04 06:55N 25°47' W 080°14'0 0.0
2018-Mar-04 06:28N 25°47' W 080°14'0 0.0
2018-Mar-04 05:59N 25°47' W 080°14'0 0.0
2018-Mar-04 05:29N 25°47' W 080°14'0 0.0
2018-Mar-04 04:59N 25°47' W 080°14'0 0.0
2018-Mar-04 04:30N 25°47' W 080°14'0 0.0
2018-Mar-04 03:58N 25°47' W 080°14'0 0.0
2018-Mar-04 03:28N 25°47' W 080°14'0 0.0
2018-Mar-04 02:58N 25°47' W 080°14'0 0.0
2018-Mar-04 02:28N 25°47' W 080°14'0 0.0
2018-Mar-04 01:58N 25°47' W 080°14'0 0.0
2018-Mar-04 01:25N 25°47' W 080°14'0 0.0
2018-Mar-04 00:55N 25°47' W 080°14'0 0.0
2018-Mar-04 00:25N 25°47' W 080°14'0 0.0
2018-Mar-03 23:58N 25°47' W 080°14'0 0.0
2018-Mar-03 23:30N 25°47' W 080°14'0 0.0
2018-Mar-03 23:00N 25°47' W 080°14'0 0.0
2018-Mar-03 22:30N 25°47' W 080°14'0 0.0
2018-Mar-03 21:56N 25°47' W 080°14'0 0.0
2018-Mar-03 21:26N 25°47' W 080°14'0 0.0
2018-Mar-03 20:58N 25°47' W 080°14'0 0.0
2018-Mar-03 20:30N 25°47' W 080°14'0 0.0
2018-Mar-03 19:59N 25°47' W 080°14'0 0.0
2018-Mar-03 19:29N 25°47' W 080°14'0 0.0
2018-Mar-03 18:58N 25°47' W 080°14'0 0.0
2018-Mar-03 18:29N 25°47' W 080°14'0 0.0
2018-Mar-03 17:58N 25°47' W 080°14'0 0.0
2018-Mar-03 17:28N 25°47' W 080°14'0 0.0
2018-Mar-03 16:59N 25°47' W 080°14'0 0.0
2018-Mar-03 16:29N 25°47' W 080°14'0 0.0
2018-Mar-03 16:00N 25°47' W 080°14'0 0.0
2018-Mar-03 15:28N 25°47' W 080°14'0 0.0
2018-Mar-03 14:58N 25°47' W 080°14'0 0.0
2018-Mar-03 14:29N 25°47' W 080°14'0 0.0
2018-Mar-03 14:00N 25°47' W 080°14'0 0.0
2018-Mar-03 13:25N 25°47' W 080°14'0 0.0
2018-Mar-03 12:59N 25°47' W 080°14'0 0.0
2018-Mar-03 12:29N 25°47' W 080°14'0 0.0
2018-Mar-03 11:57N 25°47' W 080°14'0 0.0
2018-Mar-03 11:29N 25°47' W 080°14'0 0.0
2018-Mar-03 10:54N 25°47' W 080°14'0 0.0
2018-Mar-03 10:30N 25°47' W 080°14'0 0.0
2018-Mar-03 09:56N 25°47' W 080°14'0 0.0
2018-Mar-03 09:25N 25°47' W 080°14'0 0.0
2018-Mar-03 09:00N 25°47' W 080°14'0 0.0
2018-Mar-03 08:29N 25°47' W 080°14'0 0.0
2018-Mar-03 07:59N 25°47' W 080°14'0 0.0
2018-Mar-03 07:28N 25°47' W 080°14'0 0.0
2018-Mar-03 06:50N 25°47' W 080°14'0 0.0
2018-Mar-03 06:29N 25°47' W 080°14'0 0.0
2018-Mar-03 05:59N 25°47' W 080°14'0 0.0
2018-Mar-03 05:24N 25°47' W 080°14'0 0.0
2018-Mar-03 05:00N 25°47' W 080°14'0 0.0
2018-Mar-03 04:29N 25°47' W 080°14'0 0.0
2018-Mar-03 04:00N 25°47' W 080°14'0 0.0
2018-Mar-03 03:30N 25°47' W 080°14'0 0.0
2018-Mar-03 02:53N 25°47' W 080°14'0 0.0
2018-Mar-03 02:29N 25°47' W 080°14'0 0.0
2018-Mar-03 01:58N 25°47' W 080°14'0 0.0
2018-Mar-03 01:28N 25°47' W 080°14'0 0.0
2018-Mar-03 00:59N 25°47' W 080°14'0 0.0
2018-Mar-03 00:28N 25°47' W 080°14'0 0.0
2018-Mar-02 23:58N 25°47' W 080°14'0 0.0
2018-Mar-02 23:28N 25°47' W 080°14'0 0.0
2018-Mar-02 22:55N 25°47' W 080°14'0 0.0
2018-Mar-02 22:29N 25°47' W 080°14'0 0.0
2018-Mar-02 22:00N 25°47' W 080°14'0 0.0
2018-Mar-02 21:30N 25°47' W 080°14'0 0.0
2018-Mar-02 21:00N 25°47' W 080°14'0 0.0
2018-Mar-02 20:30N 25°47' W 080°14'0 0.0
2018-Mar-02 19:57N 25°47' W 080°14'0 0.0
2018-Mar-02 19:25N 25°47' W 080°14'0 0.0
2018-Mar-02 19:00N 25°47' W 080°14'0 0.0
2018-Mar-02 18:30N 25°47' W 080°14'0 0.0
2018-Mar-02 18:00N 25°47' W 080°14'0 0.0
2018-Mar-02 17:30N 25°47' W 080°14'0 0.0
2018-Mar-02 16:55N 25°47' W 080°14'0 0.0
2018-Mar-02 16:28N 25°47' W 080°14'0 0.0
2018-Mar-02 15:55N 25°47' W 080°14'0 0.0
2018-Mar-02 15:25N 25°47' W 080°14'0 0.0
2018-Mar-02 15:00N 25°47' W 080°14'0 0.0
2018-Mar-02 14:23N 25°47' W 080°14'0 0.0
2018-Mar-02 13:59N 25°47' W 080°14'0 0.0
2018-Mar-02 13:26N 25°47' W 080°14'0 0.0
2018-Mar-02 12:55N 25°47' W 080°14'0 0.0
2018-Mar-02 12:30N 25°47' W 080°14'0 0.0
2018-Mar-02 11:57N 25°47' W 080°14'0 0.0
2018-Mar-02 11:30N 25°47' W 080°14'0 0.0
2018-Mar-02 11:00N 25°47' W 080°14'0 0.0
2018-Mar-02 10:29N 25°47' W 080°14'0 0.0
2018-Mar-02 09:58N 25°47' W 080°14'0 0.0
2018-Mar-02 09:17N 25°47' W 080°14'0 0.0
2018-Mar-02 08:55N 25°47' W 080°14'0 0.0
2018-Mar-02 08:25N 25°47' W 080°14'0 0.0
2018-Mar-02 07:58N 25°47' W 080°14'0 0.0
2018-Mar-02 07:30N 25°47' W 080°14'0 0.0
2018-Mar-02 06:58N 25°47' W 080°14'0 0.0
2018-Mar-02 06:30N 25°47' W 080°14'0 0.0
2018-Mar-02 05:55N 25°47' W 080°14'0 0.0
2018-Mar-02 05:29N 25°47' W 080°14'0 0.0
2018-Mar-02 04:59N 25°47' W 080°14'0 0.0
2018-Mar-02 04:28N 25°47' W 080°14'0 0.0
2018-Mar-02 04:00N 25°47' W 080°14'0 0.0
2018-Mar-02 03:27N 25°47' W 080°14'0 0.0
2018-Mar-02 02:59N 25°47' W 080°14'0 0.0
2018-Mar-02 02:22N 25°47' W 080°14'0 0.0
2018-Mar-02 01:57N 25°47' W 080°14'0 0.0
2018-Mar-02 01:30N 25°47' W 080°14'0 0.0
2018-Mar-02 00:55N 25°47' W 080°14'0 0.0
2018-Mar-02 00:30N 25°47' W 080°14'0 0.0
2018-Mar-02 00:00N 25°47' W 080°14'0 0.0
2018-Mar-01 23:26N 25°47' W 080°14'0 0.0
2018-Mar-01 22:59N 25°47' W 080°14'0 0.0
2018-Mar-01 22:19N 25°47' W 080°14'0 0.0
2018-Mar-01 22:00N 25°47' W 080°14'0 0.0
2018-Mar-01 21:29N 25°47' W 080°14'0 0.0
2018-Mar-01 20:59N 25°47' W 080°14'0 0.0
2018-Mar-01 20:30N 25°47' W 080°14'0 0.0
2018-Mar-01 19:51N 25°47' W 080°14'0 0.0
2018-Mar-01 19:30N 25°47' W 080°14'0 0.0
2018-Mar-01 18:59N 25°47' W 080°14'0 0.0
2018-Mar-01 18:29N 25°47' W 080°14'0 0.0
2018-Mar-01 17:56N 25°47' W 080°14'0 0.0
2018-Mar-01 17:29N 25°47' W 080°14'0 0.0
2018-Mar-01 16:59N 25°47' W 080°14'0 0.0
2018-Mar-01 16:23N 25°47' W 080°14'0 0.0
2018-Mar-01 15:59N 25°47' W 080°14'0 0.0
2018-Mar-01 15:24N 25°47' W 080°14'0 0.0
2018-Mar-01 14:59N 25°47' W 080°14'0 0.0
2018-Mar-01 14:29N 25°47' W 080°14'0 0.0
2018-Mar-01 14:00N 25°47' W 080°14'0 0.0
2018-Mar-01 13:30N 25°47' W 080°14'0 0.0
2018-Mar-01 12:56N 25°47' W 080°14'0 0.0
2018-Mar-01 12:28N 25°47' W 080°14'0 0.0
2018-Mar-01 11:59N 25°47' W 080°14'0 0.0
2018-Mar-01 11:29N 25°47' W 080°14'0 0.0
2018-Mar-01 10:58N 25°47' W 080°14'0 0.0
2018-Mar-01 10:28N 25°47' W 080°14'0 0.0
2018-Mar-01 09:56N 25°47' W 080°14'0 0.0
2018-Mar-01 09:29N 25°47' W 080°14'0 0.0
2018-Mar-01 08:56N 25°47' W 080°14'0 0.0
2018-Mar-01 08:23N 25°47' W 080°14'0 0.0
2018-Mar-01 07:59N 25°47' W 080°14'0 0.0
2018-Mar-01 07:29N 25°47' W 080°14'0 0.0
2018-Mar-01 06:59N 25°47' W 080°14'0 0.0
2018-Mar-01 06:29N 25°47' W 080°14'0 0.0
2018-Mar-01 06:00N 25°47' W 080°14'0 0.0
2018-Mar-01 05:29N 25°47' W 080°14'0 0.0
2018-Mar-01 04:59N 25°47' W 080°14'0 0.0
2018-Mar-01 04:29N 25°47' W 080°14'0 0.0
2018-Mar-01 03:59N 25°47' W 080°14'0 0.0
2018-Mar-01 03:20N 25°47' W 080°14'0 0.0
2018-Mar-01 03:00N 25°47' W 080°14'0 0.0
2018-Mar-01 02:30N 25°47' W 080°14'0 0.0
2018-Mar-01 01:59N 25°47' W 080°14'0 0.0
2018-Mar-01 01:29N 25°47' W 080°14'0 0.0
2018-Mar-01 00:59N 25°47' W 080°14'0 0.0
2018-Mar-01 00:29N 25°47' W 080°14'0 0.0
2018-Feb-28 23:57N 25°47' W 080°14'0 0.0
2018-Feb-28 23:30N 25°47' W 080°14'  
Track history (hours):
 
Tides and Currents Weather Stations Pressure Air Temp Water Temp Dewpoint Dewpoint Depression Visibility Wind Speed Wind Dir Waves Ship Positions

Family Island

Last reported at 2018-Mar-10 23:26 UTC. Time now 2018-Jun-24 22:13 UTC.
Position N 25°32' W 079°50'.
Warning: this ship's position is months out of date.

; draft 4.1 m.

Type: Cargo ship. MMSI: 677099500.

Date/timePositionNaut miles runAvg speedWind from/ knotsBaromVisibWave heightAir tempDewpointWater temp
2018-Mar-10 23:26N 25°32' W 079°50'2 4.5
2018-Mar-10 23:00N 25°34' W 079°51'2 4.6
2018-Mar-10 22:30N 25°36' W 079°52'2 4.7
2018-Mar-10 22:00N 25°38' W 079°53'2 4.6
2018-Mar-10 21:30N 25°40' W 079°54'2 4.5
2018-Mar-10 21:00N 25°42' W 079°55'2 4.6
2018-Mar-10 20:30N 25°44' W 079°56'3 5.2
2018-Mar-10 20:00N 25°45' W 079°59'3 5.9
2018-Mar-10 19:30N 25°46' W 080°02'3 5.8
2018-Mar-10 19:00N 25°46' W 080°06'3 5.3
2018-Mar-10 18:30N 25°46' W 080°08'2 4.8
2018-Mar-10 17:59N 25°46' W 080°11'1 2.4
2018-Mar-10 17:28N 25°47' W 080°12'0 0.0
2018-Mar-10 16:53N 25°47' W 080°12'1 1.6
2018-Mar-10 16:31N 25°47' W 080°13'1 1.2
2018-Mar-10 15:57N 25°47' W 080°14'0 0.0
2018-Mar-10 15:27N 25°47' W 080°14'0 0.0
2018-Mar-10 14:58N 25°47' W 080°14'0 0.0
2018-Mar-10 14:28N 25°47' W 080°14'0 0.0
2018-Mar-10 14:00N 25°47' W 080°14'0 0.0
2018-Mar-10 13:27N 25°47' W 080°14'0 0.0
2018-Mar-10 12:58N 25°47' W 080°14'0 0.0
2018-Mar-10 12:27N 25°47' W 080°14'0 0.0
2018-Mar-10 11:59N 25°47' W 080°14'0 0.0
2018-Mar-10 11:30N 25°47' W 080°14'0 0.0
2018-Mar-10 11:00N 25°47' W 080°14'0 0.0
2018-Mar-10 10:30N 25°47' W 080°14'0 0.0
2018-Mar-10 10:00N 25°47' W 080°14'0 0.0
2018-Mar-10 09:28N 25°47' W 080°14'0 0.0
2018-Mar-10 08:58N 25°47' W 080°14'0 0.0
2018-Mar-10 08:22N 25°47' W 080°14'0 0.0
2018-Mar-10 07:58N 25°47' W 080°14'0 0.0
2018-Mar-10 07:28N 25°47' W 080°14'0 0.0
2018-Mar-10 06:54N 25°47' W 080°14'0 0.0
2018-Mar-10 06:30N 25°47' W 080°14'0 0.0
2018-Mar-10 05:55N 25°47' W 080°14'0 0.0
2018-Mar-10 05:25N 25°47' W 080°14'0 0.0
2018-Mar-10 04:58N 25°47' W 080°14'0 0.0
2018-Mar-10 04:27N 25°47' W 080°14'0 0.0
2018-Mar-10 03:57N 25°47' W 080°14'0 0.0
2018-Mar-10 03:30N 25°47' W 080°14'0 0.0
2018-Mar-10 03:00N 25°47' W 080°14'0 0.0
2018-Mar-10 02:30N 25°47' W 080°14'0 0.0
2018-Mar-10 01:58N 25°47' W 080°14'0 0.0
2018-Mar-10 01:22N 25°47' W 080°14'0 0.0
2018-Mar-10 00:58N 25°47' W 080°14'0 0.0
2018-Mar-10 00:22N 25°47' W 080°14'0 0.0
2018-Mar-09 23:58N 25°47' W 080°14'0 0.0
2018-Mar-09 23:29N 25°47' W 080°14'0 0.0
2018-Mar-09 22:58N 25°47' W 080°14'0 0.0
2018-Mar-09 22:26N 25°47' W 080°14'0 0.0
2018-Mar-09 21:58N 25°47' W 080°14'0 0.0
2018-Mar-09 21:28N 25°47' W 080°14'0 0.0
2018-Mar-09 21:00N 25°47' W 080°14'0 0.0
2018-Mar-09 20:30N 25°47' W 080°14'0 0.0
2018-Mar-09 19:55N 25°47' W 080°14'0 0.0
2018-Mar-09 19:25N 25°47' W 080°14'0 0.0
2018-Mar-09 18:54N 25°47' W 080°14'0 0.0
2018-Mar-09 18:23N 25°47' W 080°14'0 0.0
2018-Mar-09 17:54N 25°47' W 080°14'0 0.0
2018-Mar-09 17:27N 25°47' W 080°14'0 0.0
2018-Mar-09 17:00N 25°47' W 080°14'0 0.0
2018-Mar-09 16:27N 25°47' W 080°14'0 0.0
2018-Mar-09 15:57N 25°47' W 080°14'0 0.0
2018-Mar-09 15:28N 25°47' W 080°14'0 0.0
2018-Mar-09 14:58N 25°47' W 080°14'0 0.0
2018-Mar-09 14:28N 25°47' W 080°14'0 0.0
2018-Mar-09 13:58N 25°47' W 080°14'0 0.0
2018-Mar-09 13:21N 25°47' W 080°14'0 0.0
2018-Mar-09 12:56N 25°47' W 080°14'0 0.0
2018-Mar-09 12:26N 25°47' W 080°14'0 0.0
2018-Mar-09 12:00N 25°47' W 080°14'0 0.0
2018-Mar-09 11:30N 25°47' W 080°14'0 0.0
2018-Mar-09 10:59N 25°47' W 080°14'0 0.0
2018-Mar-09 10:28N 25°47' W 080°14'0 0.0
2018-Mar-09 09:52N 25°47' W 080°14'0 0.0
2018-Mar-09 09:24N 25°47' W 080°14'0 0.0
2018-Mar-09 09:00N 25°47' W 080°14'0 0.0
2018-Mar-09 08:30N 25°47' W 080°14'0 0.0
2018-Mar-09 08:00N 25°47' W 080°14'0 0.0
2018-Mar-09 07:26N 25°47' W 080°14'0 0.0
2018-Mar-09 06:58N 25°47' W 080°14'0 0.0
2018-Mar-09 06:28N 25°47' W 080°14'0 0.0
2018-Mar-09 05:57N 25°47' W 080°14'0 0.0
2018-Mar-09 05:26N 25°47' W 080°14'0 0.0
2018-Mar-09 04:59N 25°47' W 080°14'0 0.0
2018-Mar-09 04:27N 25°47' W 080°14'0 0.0
2018-Mar-09 03:58N 25°47' W 080°14'0 0.0
2018-Mar-09 03:29N 25°47' W 080°14'0 0.0
2018-Mar-09 02:59N 25°47' W 080°14'0 0.0
2018-Mar-09 02:29N 25°47' W 080°14'0 0.0
2018-Mar-09 01:59N 25°47' W 080°14'0 0.0
2018-Mar-09 01:24N 25°47' W 080°14'0 0.0
2018-Mar-09 00:55N 25°47' W 080°14'0 0.0
2018-Mar-09 00:28N 25°47' W 080°14'0 0.0
2018-Mar-08 23:57N 25°47' W 080°14'0 0.0
2018-Mar-08 23:25N 25°47' W 080°14'0 0.0
2018-Mar-08 22:58N 25°47' W 080°14'0 0.0
2018-Mar-08 22:29N 25°47' W 080°14'0 0.0
2018-Mar-08 21:59N 25°47' W 080°14'0 0.0
2018-Mar-08 21:29N 25°47' W 080°14'0 0.0
2018-Mar-08 20:54N 25°47' W 080°14'0 0.0
2018-Mar-08 20:30N 25°47' W 080°14'0 0.0
2018-Mar-07 21:59N 25°47' W 080°14'0 0.0
2018-Mar-07 21:26N 25°47' W 080°14'0 0.0
2018-Mar-07 20:57N 25°47' W 080°14'0 0.0
2018-Mar-07 20:30N 25°47' W 080°14'0 0.0
2018-Mar-07 19:58N 25°47' W 080°14'0 0.0
2018-Mar-07 19:28N 25°47' W 080°14'0 0.0
2018-Mar-07 18:56N 25°47' W 080°14'0 0.0
2018-Mar-07 18:29N 25°47' W 080°14'0 0.0
2018-Mar-07 18:00N 25°47' W 080°14'0 0.0
2018-Mar-07 17:30N 25°47' W 080°14'0 0.0
2018-Mar-07 16:55N 25°47' W 080°14'0 0.0
2018-Mar-07 16:30N 25°47' W 080°14'0 0.0
2018-Mar-07 15:58N 25°47' W 080°14'0 0.0
2018-Mar-07 15:28N 25°47' W 080°14'0 0.0
2018-Mar-07 14:58N 25°47' W 080°14'0 0.0
2018-Mar-07 14:28N 25°47' W 080°14'0 0.0
2018-Mar-07 14:00N 25°47' W 080°14'0 0.0
2018-Mar-07 13:21N 25°47' W 080°14'0 0.0
2018-Mar-07 13:00N 25°47' W 080°14'0 0.0
2018-Mar-07 12:29N 25°47' W 080°14'0 0.0
2018-Mar-07 12:00N 25°47' W 080°14'0 0.0
2018-Mar-07 11:30N 25°47' W 080°14'0 0.0
2018-Mar-07 10:57N 25°47' W 080°14'0 0.0
2018-Mar-07 10:30N 25°47' W 080°14'0 0.0
2018-Mar-07 09:59N 25°47' W 080°14'0 0.0
2018-Mar-07 09:24N 25°47' W 080°14'0 0.0
2018-Mar-07 08:57N 25°47' W 080°14'0 0.0
2018-Mar-07 08:30N 25°47' W 080°14'0 0.0
2018-Mar-07 08:00N 25°47' W 080°14'0 0.0
2018-Mar-07 07:30N 25°47' W 080°14'0 0.0
2018-Mar-07 07:00N 25°47' W 080°14'0 0.0
2018-Mar-07 06:30N 25°47' W 080°14'0 0.0
2018-Mar-07 05:59N 25°47' W 080°14'0 0.0
2018-Mar-07 05:29N 25°47' W 080°14'0 0.0
2018-Mar-07 04:53N 25°47' W 080°14'0 0.0
2018-Mar-07 04:28N 25°47' W 080°14'0 0.0
2018-Mar-07 03:58N 25°47' W 080°14'0 0.0
2018-Mar-07 03:24N 25°47' W 080°14'0 0.0
2018-Mar-07 02:56N 25°47' W 080°14'0 0.0
2018-Mar-07 02:29N 25°47' W 080°14'0 0.0
2018-Mar-07 01:55N 25°47' W 080°14'0 0.0
2018-Mar-07 01:25N 25°47' W 080°14'0 0.0
2018-Mar-07 00:59N 25°47' W 080°14'0 0.0
2018-Mar-07 00:28N 25°47' W 080°14'0 0.0
2018-Mar-06 23:59N 25°47' W 080°14'0 0.0
2018-Mar-06 23:28N 25°47' W 080°14'0 0.0
2018-Mar-06 22:58N 25°47' W 080°14'0 0.0
2018-Mar-06 22:28N 25°47' W 080°14'0 0.0
2018-Mar-06 21:58N 25°47' W 080°14'0 0.0
2018-Mar-06 21:28N 25°47' W 080°14'0 0.0
2018-Mar-06 20:57N 25°47' W 080°14'0 0.0
2018-Mar-06 20:30N 25°47' W 080°14'0 0.0
2018-Mar-06 20:00N 25°47' W 080°14'0 0.0
2018-Mar-06 19:26N 25°47' W 080°14'0 0.0
2018-Mar-06 18:59N 25°47' W 080°14'0 0.0
2018-Mar-06 18:29N 25°47' W 080°14'0 0.0
2018-Mar-06 17:59N 25°47' W 080°14'0 0.0
2018-Mar-06 17:27N 25°47' W 080°14'0 0.0
2018-Mar-06 16:57N 25°47' W 080°14'0 0.0
2018-Mar-06 16:27N 25°47' W 080°14'0 0.0
2018-Mar-06 16:00N 25°47' W 080°14'0 0.0
2018-Mar-06 15:29N 25°47' W 080°14'0 0.0
2018-Mar-06 14:59N 25°47' W 080°14'0 0.0
2018-Mar-06 14:29N 25°47' W 080°14'0 0.0
2018-Mar-06 14:00N 25°47' W 080°14'0 0.0
2018-Mar-06 13:30N 25°47' W 080°14'0 0.0
2018-Mar-06 12:59N 25°47' W 080°14'0 0.0
2018-Mar-06 12:29N 25°47' W 080°14'0 0.0
2018-Mar-06 11:58N 25°47' W 080°14'0 0.0
2018-Mar-06 11:22N 25°47' W 080°14'0 0.0
2018-Mar-06 11:00N 25°47' W 080°14'0 0.0
2018-Mar-06 10:30N 25°47' W 080°14'0 0.0
2018-Mar-06 10:00N 25°47' W 080°14'0 0.0
2018-Mar-06 09:29N 25°47' W 080°14'0 0.0
2018-Mar-06 09:00N 25°47' W 080°14'0 0.0
2018-Mar-06 08:29N 25°47' W 080°14'0 0.0
2018-Mar-06 08:00N 25°47' W 080°14'0 0.0
2018-Mar-06 07:30N 25°47' W 080°14'0 0.0
2018-Mar-06 06:59N 25°47' W 080°14'0 0.0
2018-Mar-06 06:22N 25°47' W 080°14'0 0.0
2018-Mar-06 05:55N 25°47' W 080°14'0 0.0
2018-Mar-06 05:27N 25°47' W 080°14'0 0.0
2018-Mar-06 05:00N 25°47' W 080°14'0 0.0
2018-Mar-06 04:30N 25°47' W 080°14'0 0.0
2018-Mar-06 03:58N 25°47' W 080°14'0 0.0
2018-Mar-06 03:28N 25°47' W 080°14'0 0.0
2018-Mar-06 02:50N 25°47' W 080°14'0 0.0
2018-Mar-06 02:29N 25°47' W 080°14'0 0.0
2018-Mar-06 01:57N 25°47' W 080°14'0 0.0
2018-Mar-06 01:30N 25°47' W 080°14'0 0.0
2018-Mar-06 00:52N 25°47' W 080°14'0 0.0
2018-Mar-06 00:28N 25°47' W 080°14'0 0.0
2018-Mar-05 23:58N 25°47' W 080°14'0 0.0
2018-Mar-05 23:30N 25°47' W 080°14'0 0.0
2018-Mar-05 22:57N 25°47' W 080°14'0 0.0
2018-Mar-05 22:28N 25°47' W 080°14'0 0.0
2018-Mar-05 21:58N 25°47' W 080°14'0 0.0
2018-Mar-05 21:30N 25°47' W 080°14'0 0.0
2018-Mar-05 20:58N 25°47' W 080°14'0 0.0
2018-Mar-05 20:30N 25°47' W 080°14'0 0.0
2018-Mar-05 19:57N 25°47' W 080°14'0 0.0
2018-Mar-05 19:30N 25°47' W 080°14'0 0.0
2018-Mar-05 19:00N 25°47' W 080°14'0 0.0
2018-Mar-05 18:28N 25°47' W 080°14'0 0.0
2018-Mar-05 18:00N 25°47' W 080°14'0 0.0
2018-Mar-05 17:25N 25°47' W 080°14'0 0.0
2018-Mar-05 16:56N 25°47' W 080°14'0 0.0
2018-Mar-05 16:27N 25°47' W 080°14'0 0.0
2018-Mar-05 16:00N 25°47' W 080°14'0 0.0
2018-Mar-05 15:29N 25°47' W 080°14'0 0.0
2018-Mar-05 14:59N 25°47' W 080°14'0 0.0
2018-Mar-05 14:29N 25°47' W 080°14'0 0.0
2018-Mar-05 13:53N 25°47' W 080°14'0 0.0
2018-Mar-05 13:30N 25°47' W 080°14'0 0.0
2018-Mar-05 12:57N 25°47' W 080°14'0 0.0
2018-Mar-05 12:30N 25°47' W 080°14'0 0.0
2018-Mar-05 11:58N 25°47' W 080°14'0 0.0
2018-Mar-05 11:28N 25°47' W 080°14'0 0.0
2018-Mar-05 10:58N 25°47' W 080°14'0 0.0
2018-Mar-05 10:29N 25°47' W 080°14'0 0.0
2018-Mar-05 09:58N 25°47' W 080°14'0 0.0
2018-Mar-05 09:28N 25°47' W 080°14'0 0.0
2018-Mar-05 08:53N 25°47' W 080°14'0 0.0
2018-Mar-05 08:30N 25°47' W 080°14'0 0.0
2018-Mar-05 07:57N 25°47' W 080°14'0 0.0
2018-Mar-05 07:24N 25°47' W 080°14'0 0.0
2018-Mar-05 07:00N 25°47' W 080°14'0 0.0
2018-Mar-05 06:30N 25°47' W 080°14'0 0.0
2018-Mar-05 05:56N 25°47' W 080°14'0 0.0
2018-Mar-05 05:30N 25°47' W 080°14'0 0.0
2018-Mar-05 05:00N 25°47' W 080°14'0 0.0
2018-Mar-05 04:27N 25°47' W 080°14'0 0.0
2018-Mar-05 03:58N 25°47' W 080°14'0 0.0
2018-Mar-05 03:26N 25°47' W 080°14'0 0.0
2018-Mar-05 02:53N 25°47' W 080°14'0 0.0
2018-Mar-05 02:23N 25°47' W 080°14'0 0.0
2018-Mar-05 01:56N 25°47' W 080°14'0 0.0
2018-Mar-05 01:28N 25°47' W 080°14'0 0.0
2018-Mar-05 00:58N 25°47' W 080°14'0 0.0
2018-Mar-05 00:28N 25°47' W 080°14'0 0.0
2018-Mar-04 23:55N 25°47' W 080°14'0 0.0
2018-Mar-04 23:28N 25°47' W 080°14'0 0.0
2018-Mar-04 22:58N 25°47' W 080°14'0 0.0
2018-Mar-04 22:28N 25°47' W 080°14'0 0.0
2018-Mar-04 21:58N 25°47' W 080°14'0 0.0
2018-Mar-04 21:29N 25°47' W 080°14'0 0.0
2018-Mar-04 21:00N 25°47' W 080°14'0 0.0
2018-Mar-04 20:30N 25°47' W 080°14'0 0.0
2018-Mar-04 20:00N 25°47' W 080°14'0 0.0
2018-Mar-04 19:30N 25°47' W 080°14'0 0.0
2018-Mar-04 18:59N 25°47' W 080°14'0 0.0
2018-Mar-04 18:28N 25°47' W 080°14'0 0.0
2018-Mar-04 17:59N 25°47' W 080°14'0 0.0
2018-Mar-04 17:30N 25°47' W 080°14'0 0.0
2018-Mar-04 16:55N 25°47' W 080°14'0 0.0
2018-Mar-04 16:25N 25°47' W 080°14'0 0.0
2018-Mar-04 15:58N 25°47' W 080°14'0 0.0
2018-Mar-04 15:25N 25°47' W 080°14'0 0.0
2018-Mar-04 15:00N 25°47' W 080°14'0 0.0
2018-Mar-04 14:27N 25°47' W 080°14'0 0.0
2018-Mar-04 13:57N 25°47' W 080°14'0 0.0
2018-Mar-04 13:28N 25°47' W 080°14'0 0.0
2018-Mar-04 12:55N 25°47' W 080°14'0 0.0
2018-Mar-04 12:29N 25°47' W 080°14'0 0.0
2018-Mar-04 11:58N 25°47' W 080°14'0 0.0
2018-Mar-04 11:25N 25°47' W 080°14'0 0.0
2018-Mar-04 10:58N 25°47' W 080°14'0 0.0
2018-Mar-04 10:27N 25°47' W 080°14'0 0.0
2018-Mar-04 09:56N 25°47' W 080°14'0 0.0
2018-Mar-04 09:28N 25°47' W 080°14'0 0.0
2018-Mar-04 08:58N 25°47' W 080°14'0 0.0
2018-Mar-04 08:28N 25°47' W 080°14'0 0.0
2018-Mar-04 07:58N 25°47' W 080°14'0 0.0
2018-Mar-04 07:25N 25°47' W 080°14'0 0.0
2018-Mar-04 06:55N 25°47' W 080°14'0 0.0
2018-Mar-04 06:28N 25°47' W 080°14'0 0.0
2018-Mar-04 05:59N 25°47' W 080°14'0 0.0
2018-Mar-04 05:29N 25°47' W 080°14'0 0.0
2018-Mar-04 04:59N 25°47' W 080°14'0 0.0
2018-Mar-04 04:30N 25°47' W 080°14'0 0.0
2018-Mar-04 03:58N 25°47' W 080°14'0 0.0
2018-Mar-04 03:28N 25°47' W 080°14'0 0.0
2018-Mar-04 02:58N 25°47' W 080°14'0 0.0
2018-Mar-04 02:28N 25°47' W 080°14'0 0.0
2018-Mar-04 01:58N 25°47' W 080°14'0 0.0
2018-Mar-04 01:25N 25°47' W 080°14'0 0.0
2018-Mar-04 00:55N 25°47' W 080°14'0 0.0
2018-Mar-04 00:25N 25°47' W 080°14'0 0.0
2018-Mar-03 23:58N 25°47' W 080°14'0 0.0
2018-Mar-03 23:30N 25°47' W 080°14'0 0.0
2018-Mar-03 23:00N 25°47' W 080°14'0 0.0
2018-Mar-03 22:30N 25°47' W 080°14'0 0.0
2018-Mar-03 21:56N 25°47' W 080°14'0 0.0
2018-Mar-03 21:26N 25°47' W 080°14'0 0.0
2018-Mar-03 20:58N 25°47' W 080°14'0 0.0
2018-Mar-03 20:30N 25°47' W 080°14'0 0.0
2018-Mar-03 19:59N 25°47' W 080°14'0 0.0
2018-Mar-03 19:29N 25°47' W 080°14'0 0.0
2018-Mar-03 18:58N 25°47' W 080°14'0 0.0
2018-Mar-03 18:29N 25°47' W 080°14'0 0.0
2018-Mar-03 17:58N 25°47' W 080°14'0 0.0
2018-Mar-03 17:28N 25°47' W 080°14'0 0.0
2018-Mar-03 16:59N 25°47' W 080°14'0 0.0
2018-Mar-03 16:29N 25°47' W 080°14'0 0.0
2018-Mar-03 16:00N 25°47' W 080°14'0 0.0
2018-Mar-03 15:28N 25°47' W 080°14'0 0.0
2018-Mar-03 14:58N 25°47' W 080°14'0 0.0
2018-Mar-03 14:29N 25°47' W 080°14'0 0.0
2018-Mar-03 14:00N 25°47' W 080°14'0 0.0
2018-Mar-03 13:25N 25°47' W 080°14'0 0.0
2018-Mar-03 12:59N 25°47' W 080°14'0 0.0
2018-Mar-03 12:29N 25°47' W 080°14'0 0.0
2018-Mar-03 11:57N 25°47' W 080°14'0 0.0
2018-Mar-03 11:29N 25°47' W 080°14'0 0.0
2018-Mar-03 10:54N 25°47' W 080°14'0 0.0
2018-Mar-03 10:30N 25°47' W 080°14'0 0.0
2018-Mar-03 09:56N 25°47' W 080°14'0 0.0
2018-Mar-03 09:25N 25°47' W 080°14'0 0.0
2018-Mar-03 09:00N 25°47' W 080°14'0 0.0
2018-Mar-03 08:29N 25°47' W 080°14'0 0.0
2018-Mar-03 07:59N 25°47' W 080°14'0 0.0
2018-Mar-03 07:28N 25°47' W 080°14'0 0.0
2018-Mar-03 06:50N 25°47' W 080°14'0 0.0
2018-Mar-03 06:29N 25°47' W 080°14'0 0.0
2018-Mar-03 05:59N 25°47' W 080°14'0 0.0
2018-Mar-03 05:24N 25°47' W 080°14'0 0.0
2018-Mar-03 05:00N 25°47' W 080°14'0 0.0
2018-Mar-03 04:29N 25°47' W 080°14'0 0.0
2018-Mar-03 04:00N 25°47' W 080°14'0 0.0
2018-Mar-03 03:30N 25°47' W 080°14'0 0.0
2018-Mar-03 02:53N 25°47' W 080°14'0 0.0
2018-Mar-03 02:29N 25°47' W 080°14'0 0.0
2018-Mar-03 01:58N 25°47' W 080°14'0 0.0
2018-Mar-03 01:28N 25°47' W 080°14'0 0.0
2018-Mar-03 00:59N 25°47' W 080°14'0 0.0
2018-Mar-03 00:28N 25°47' W 080°14'0 0.0
2018-Mar-02 23:58N 25°47' W 080°14'0 0.0
2018-Mar-02 23:28N 25°47' W 080°14'0 0.0
2018-Mar-02 22:55N 25°47' W 080°14'0 0.0
2018-Mar-02 22:29N 25°47' W 080°14'0 0.0
2018-Mar-02 22:00N 25°47' W 080°14'0 0.0
2018-Mar-02 21:30N 25°47' W 080°14'0 0.0
2018-Mar-02 21:00N 25°47' W 080°14'0 0.0
2018-Mar-02 20:30N 25°47' W 080°14'0 0.0
2018-Mar-02 19:57N 25°47' W 080°14'0 0.0
2018-Mar-02 19:25N 25°47' W 080°14'0 0.0
2018-Mar-02 19:00N 25°47' W 080°14'0 0.0
2018-Mar-02 18:30N 25°47' W 080°14'0 0.0
2018-Mar-02 18:00N 25°47' W 080°14'0 0.0
2018-Mar-02 17:30N 25°47' W 080°14'0 0.0
2018-Mar-02 16:55N 25°47' W 080°14'0 0.0
2018-Mar-02 16:28N 25°47' W 080°14'0 0.0
2018-Mar-02 15:55N 25°47' W 080°14'0 0.0
2018-Mar-02 15:25N 25°47' W 080°14'0 0.0
2018-Mar-02 15:00N 25°47' W 080°14'0 0.0
2018-Mar-02 14:23N 25°47' W 080°14'0 0.0
2018-Mar-02 13:59N 25°47' W 080°14'0 0.0
2018-Mar-02 13:26N 25°47' W 080°14'0 0.0
2018-Mar-02 12:55N 25°47' W 080°14'0 0.0
2018-Mar-02 12:30N 25°47' W 080°14'0 0.0
2018-Mar-02 11:57N 25°47' W 080°14'0 0.0
2018-Mar-02 11:30N 25°47' W 080°14'0 0.0
2018-Mar-02 11:00N 25°47' W 080°14'0 0.0
2018-Mar-02 10:29N 25°47' W 080°14'0 0.0
2018-Mar-02 09:58N 25°47' W 080°14'0 0.0
2018-Mar-02 09:17N 25°47' W 080°14'0 0.0
2018-Mar-02 08:55N 25°47' W 080°14'0 0.0
2018-Mar-02 08:25N 25°47' W 080°14'0 0.0
2018-Mar-02 07:58N 25°47' W 080°14'0 0.0
2018-Mar-02 07:30N 25°47' W 080°14'0 0.0
2018-Mar-02 06:58N 25°47' W 080°14'0 0.0
2018-Mar-02 06:30N 25°47' W 080°14'0 0.0
2018-Mar-02 05:55N 25°47' W 080°14'0 0.0
2018-Mar-02 05:29N 25°47' W 080°14'0 0.0
2018-Mar-02 04:59N 25°47' W 080°14'0 0.0
2018-Mar-02 04:28N 25°47' W 080°14'0 0.0
2018-Mar-02 04:00N 25°47' W 080°14'0 0.0
2018-Mar-02 03:27N 25°47' W 080°14'0 0.0
2018-Mar-02 02:59N 25°47' W 080°14'0 0.0
2018-Mar-02 02:22N 25°47' W 080°14'0 0.0
2018-Mar-02 01:57N 25°47' W 080°14'0 0.0
2018-Mar-02 01:30N 25°47' W 080°14'0 0.0
2018-Mar-02 00:55N 25°47' W 080°14'0 0.0
2018-Mar-02 00:30N 25°47' W 080°14'0 0.0
2018-Mar-02 00:00N 25°47' W 080°14'0 0.0
2018-Mar-01 23:26N 25°47' W 080°14'0 0.0
2018-Mar-01 22:59N 25°47' W 080°14'0 0.0
2018-Mar-01 22:19N 25°47' W 080°14'0 0.0
2018-Mar-01 22:00N 25°47' W 080°14'0 0.0
2018-Mar-01 21:29N 25°47' W 080°14'0 0.0
2018-Mar-01 20:59N 25°47' W 080°14'0 0.0
2018-Mar-01 20:30N 25°47' W 080°14'0 0.0
2018-Mar-01 19:51N 25°47' W 080°14'0 0.0
2018-Mar-01 19:30N 25°47' W 080°14'0 0.0
2018-Mar-01 18:59N 25°47' W 080°14'0 0.0
2018-Mar-01 18:29N 25°47' W 080°14'0 0.0
2018-Mar-01 17:56N 25°47' W 080°14'0 0.0
2018-Mar-01 17:29N 25°47' W 080°14'0 0.0
2018-Mar-01 16:59N 25°47' W 080°14'0 0.0
2018-Mar-01 16:23N 25°47' W 080°14'0 0.0
2018-Mar-01 15:59N 25°47' W 080°14'0 0.0
2018-Mar-01 15:24N 25°47' W 080°14'0 0.0
2018-Mar-01 14:59N 25°47' W 080°14'0 0.0
2018-Mar-01 14:29N 25°47' W 080°14'0 0.0
2018-Mar-01 14:00N 25°47' W 080°14'0 0.0
2018-Mar-01 13:30N 25°47' W 080°14'0 0.0
2018-Mar-01 12:56N 25°47' W 080°14'0 0.0
2018-Mar-01 12:28N 25°47' W 080°14'0 0.0
2018-Mar-01 11:59N 25°47' W 080°14'0 0.0
2018-Mar-01 11:29N 25°47' W 080°14'0 0.0
2018-Mar-01 10:58N 25°47' W 080°14'0 0.0
2018-Mar-01 10:28N 25°47' W 080°14'0 0.0
2018-Mar-01 09:56N 25°47' W 080°14'0 0.0
2018-Mar-01 09:29N 25°47' W 080°14'0 0.0
2018-Mar-01 08:56N 25°47' W 080°14'0 0.0
2018-Mar-01 08:23N 25°47' W 080°14'0 0.0
2018-Mar-01 07:59N 25°47' W 080°14'0 0.0
2018-Mar-01 07:29N 25°47' W 080°14'0 0.0
2018-Mar-01 06:59N 25°47' W 080°14'0 0.0
2018-Mar-01 06:29N 25°47' W 080°14'0 0.0
2018-Mar-01 06:00N 25°47' W 080°14'0 0.0
2018-Mar-01 05:29N 25°47' W 080°14'0 0.0
2018-Mar-01 04:59N 25°47' W 080°14'0 0.0
2018-Mar-01 04:29N 25°47' W 080°14'0 0.0
2018-Mar-01 03:59N 25°47' W 080°14'0 0.0
2018-Mar-01 03:20N 25°47' W 080°14'0 0.0
2018-Mar-01 03:00N 25°47' W 080°14'0 0.0
2018-Mar-01 02:30N 25°47' W 080°14'0 0.0
2018-Mar-01 01:59N 25°47' W 080°14'0 0.0
2018-Mar-01 01:29N 25°47' W 080°14'0 0.0
2018-Mar-01 00:59N 25°47' W 080°14'0 0.0
2018-Mar-01 00:29N 25°47' W 080°14'0 0.0
2018-Feb-28 23:57N 25°47' W 080°14'0 0.0
2018-Feb-28 23:30N 25°47' W 080°14'  

Dump ship's entire track history